威酷高清论坛

 找回密码
 立即注册
收藏本版 |订阅

4K超清影视 今日: 0|主题: 2033|排名: 10 

作者 回复/查看 最后发表
全局置顶 隐藏置顶帖 会员必读-关于账号锁定的原因 digest adminlaohu 2020-4-8 21036 大大太大 2020-8-6 20:10
全局置顶 隐藏置顶帖 人生必看的50部电影 digest  ...23456..8 卡西迪奥 2016-8-19 7140784 gary620 2020-4-2 15:47
全局置顶 隐藏置顶帖 十大世界经典电影排行榜  ...23456..11 卡西迪奥 2015-11-8 10744143 genghongqiang 2021-3-10 18:53
全局置顶 隐藏置顶帖 豆瓣电影.TOP250.Pack.1931-2012.BluRay.720p.DTS&AC3.x264 合集 1.5T attachment  ...23456..40 卡西迪奥 2015-11-4 39776094 czxin12345678 2021-5-14 06:51
全局置顶 隐藏置顶帖 mkvtoolnix对MKV封装的电影进行音轨替换添加、合并、分割的教程 attachment  ...2345 卡西迪奥 2014-10-8 4830948 风从东方来 2021-6-28 13:19
全局置顶 隐藏置顶帖 字幕软件和字幕网站福利 attach_img  ...2345 卡西迪奥 2013-8-13 4228150 fqy12348 2018-10-6 10:05
      
[WEB-4K] 有一点动心[国语音轨].Tempting.Hearts.2021.WEB-DL.4K.H265.AAC.5.1 10.91GB attachment New 半城烟沙 6 天前 026 半城烟沙 6 天前
[BD-4K] 电锯惊魂9:漩涡/《电锯惊魂》重启版 Spiral.From.the.Book.of.Saw.2021.2160p.UHD.BluRay.x265.10bit.HDR.TrueHD.7.1.Atmos-B0MBARDiERS 17.26GB attachment 卡西迪奥 7 天前 017 卡西迪奥 7 天前
[BD-4K] 环形使者/回路杀手 Looper.2012.2160p.BluRay.x264.8bit.SDR.DTS-HD.MA.5.1-SWTYBLZ 68.79GB attachment 卡西迪奥 2021-7-20 019 卡西迪奥 2021-7-20 15:07
[BD-4K] 环形使者/回路杀手 Looper.2012.2160p.BluRay.x265.10bit.SDR.DTS-HD.MA.5.1-SWTYBLZ 61.17GB attachment 卡西迪奥 2021-7-20 08 卡西迪奥 2021-7-20 15:06
[BD-4K] 乱 Ran.1985.JAPANESE.2160p.UHD.BluRay.x265.10bit.HDR.DTS-HD.MA.5.1-SURCODE 40.61G attachment 卡西迪奥 2021-7-20 016 卡西迪奥 2021-7-20 15:05
[BD-4K] 环形使者/回路杀手 Looper.2012.2160p.UHD.BluRay.x265.10bit.HDR.DTS-HD.MA.5.1-LOOPYLOOPS 42.98GB attachment 卡西迪奥 2021-7-20 011 卡西迪奥 2021-7-20 14:06
[BD-4K] 乱 Ran.1985.JAPANESE.2160p.BluRay.x264.8bit.SDR.DTS-HD.MA.5.1-SWTYBLZ 65.86GB attachment 卡西迪奥 2021-7-20 012 卡西迪奥 2021-7-20 12:52
[4K-Remux] 空中大灌篮/太空也入樽 Space.Jam.1996.2160p.BluRay.REMUX.HEVC.DTS-HD.MA.TrueHD.7.1.Atmos-FGT 52.85GB attachment 卡西迪奥 2021-7-6 046 卡西迪奥 2021-7-6 22:27
[4K-原盘] 空中大灌篮/太空也入樽 Space.Jam.1996.2160p.BluRay.HEVC.TrueHD.7.1.Atmos-MAXAGAZ 54.46GB attachment 卡西迪奥 2021-7-6 044 卡西迪奥 2021-7-6 22:26
[4K-原盘] 大魔域 The.NeverEnding.Story.1984.EXTENDED.2160p.BluRay.REMUX.HEVC.DTS-HR.5.1-FGT 51.74GB attachment 卡西迪奥 2021-7-6 029 卡西迪奥 2021-7-6 21:55
[4K-原盘] 真人快打 Mortal.Kombat.2021.2160p.BluRay.HEVC.TrueHD.7.1.Atmos-CYBER 56.82GB attachment 卡西迪奥 2021-7-6 036 卡西迪奥 2021-7-6 21:51
[4K-Remux] 真人快打 Mortal.Kombat.2021.2160p.BluRay.REMUX.HEVC.DTS-HD.MA.TrueHD.7.1.Atmos-FGT 55.63GB attachment 卡西迪奥 2021-7-6 016 卡西迪奥 2021-7-6 21:20
[4K-原盘] 大魔域 The.NeverEnding.Story.1984.EXTENDED.2160p.BluRay.HEVC.DTS-HR.5.1-UNTOUCHED 54.47GB attachment 卡西迪奥 2021-7-6 011 卡西迪奥 2021-7-6 21:19
[4K-原盘] 真人快打 Mortal.Kombat.2021.2160p.BluRay.HEVC.TrueHD.7.1.Atmos-CYBER 56.82GB attachment 卡西迪奥 2021-7-6 023 卡西迪奥 2021-7-6 21:16
[BD-4K] 黑白魔女库伊拉/《101忠狗》真人前传 Cruella.2021.2160p.WEB.H265-EMPATHY 20.15GB attachment 卡西迪奥 2021-6-27 0117 卡西迪奥 2021-6-27 14:43
[BD-4K] 安妮:纽约奇缘/安妮 Annie.2014.2160p.BCORE.WEB-DL.x265.10bit.HDR.DTS-HD.MA.5.1-SWTYBLZ 65.53GB attachment 卡西迪奥 2021-6-21 054 卡西迪奥 2021-6-21 15:31
[BD-4K] 白人男孩瑞克/白人男孩里克 White.Boy.Rick.2018.2160p.BCORE.WEB-DL.x265.10bit.HDR.DTS-HD.MA.7.1-SWTYBLZ 60.07GB attachment 卡西迪奥 2021-6-21 027 卡西迪奥 2021-6-21 15:28
[BD-4K] 小人物/无名小卒 Nobody.2021.2160p.BluRay.x264.8bit.SDR.DTS-HD.MA.TrueHD.7.1.Atmos-SWTYBLZ 42.59GB attachment 卡西迪奥 2021-6-21 054 卡西迪奥 2021-6-21 15:27
[BD-4K] 火线狙击/火线 In.the.Line.of.Fire.1993.2160p.BluRay.x265.10bit.SDR.DTS-HD.MA.TrueHD.7.1.Atmos-SWTYBLZ 59.38GB attachment 卡西迪奥 2021-6-21 035 卡西迪奥 2021-6-21 15:13
[BD-4K] 火线狙击/火线 In.the.Line.of.Fire.1993.2160p.UHD.BluRay.x265.10bit.HDR.TrueHD.7.1.Atmos-B0MBARDiERS 39.48GB attachment 卡西迪奥 2021-6-21 035 卡西迪奥 2021-6-21 15:12
[BD-4K] 圣诞前夜 The.Night.Before.2015.2160p.BCORE.WEB-DL.x265.10bit.HDR.DTS-HD.MA.5.1-SWTYBLZ 56.14GB attachment 卡西迪奥 2021-6-21 020 卡西迪奥 2021-6-21 15:04
[4K-原盘] 小人物/无名小卒 Nobody.2021.2160p.BluRay.HEVC.TrueHD.7.1.Atmos-MT 61.37GB attachment 卡西迪奥 2021-6-21 018 卡西迪奥 2021-6-21 15:03
[BD-4K] 小人物/无名小卒 Nobody.2021.2160p.UHD.BluRay.x265.10bit.HDR.DTS-HD.MA.TrueHD.7.1.Atmos-SWTYBLZ 28.00GB attachment 卡西迪奥 2021-6-21 036 卡西迪奥 2021-6-21 12:11
[4K-Remux] 小人物/无名小卒 Nobody.2021.2160p.BluRay.REMUX.HEVC.DTS-HD.MA.TrueHD.7.1.Atmos-FGT 42.76GB attachment 卡西迪奥 2021-6-21 021 卡西迪奥 2021-6-21 12:09
[BD-4K] 爬坡人生 The.Climb.2019.2160p.WEB-DL.x265.10bit.HDR.DTS-HD.MA.5.1-SWTYBLZ 54.66GB attachment 卡西迪奥 2021-6-19 028 卡西迪奥 2021-6-19 17:28
[4K-原盘] 火线狙击/火线 In.The.Line.Of.Fire.1993.2160p.BluRay.REMUX.HEVC.DTS-HD.MA.TrueHD.7.1.Atmos-FGT 74.64GB attachment 卡西迪奥 2021-6-19 046 卡西迪奥 2021-6-19 17:27
[4K-Remux] 火线狙击/火线 In.The.Line.Of.Fire.1993.2160p.BluRay.REMUX.HEVC.DTS-HD.MA.TrueHD.7.1.Atmos-FGT 74.64GB attachment 卡西迪奥 2021-6-19 024 卡西迪奥 2021-6-19 17:24
[4K-原盘] 火线狙击/火线 In.The.Line.Of.Fire.1993.2160p.BluRay.HEVC.TrueHD.7.1.Atmos-GLiNiAK 86.90GB attachment 卡西迪奥 2021-6-19 032 卡西迪奥 2021-6-19 17:24
[4K-原盘] 不洁 The.Unholy.2021.1080p.BluRay.AVC.DTS-HD.MA.5.1-NOGRP 29.73GB attachment 卡西迪奥 2021-6-19 048 卡西迪奥 2021-6-19 17:23
[BD-4K] 超能特警 Scanner.Cop.1994.2160p.BluRay.x265.10bit.SDR.DTS-HD.MA.2.0-SWTYBLZ 48.60GB attachment 卡西迪奥 2021-6-18 076 卡西迪奥 2021-6-18 21:42
[WEB-4K] 夏日友晴天/卢卡 Luca.2021.2160p.WEB-DL.x265.8bit.SDR.DDP5.1.Atmos-SWTYBLZ 13.83GB attachment 卡西迪奥 2021-6-18 0121 卡西迪奥 2021-6-18 21:24
[WEB-4K] 夏日友晴天/卢卡 Luca.2021.2160p.DSNP.WEB-DL.DDP5.1.Atmos.DV.x265-FLUX 15.78GB attachment 卡西迪奥 2021-6-18 0113 卡西迪奥 2021-6-18 21:21
[BD-4K] 超能特警 Scanner.Cop.1994.2160p.BluRay.x264.8bit.SDR.DTS-HD.MA.2.0-SWTYBLZ 57.55GB attachment 卡西迪奥 2021-6-18 061 卡西迪奥 2021-6-18 20:58
[BD-4K] 超能特警 Scanner.Cop.1994.2160p.UHD.BluRay.x265.10bit.HDR.DTS-HD.MA.2.0-SWTYBLZ 36.64GB attachment 卡西迪奥 2021-6-18 021 卡西迪奥 2021-6-18 20:58
[WEB-4K] 夏日友晴天/卢卡 Luca.2021.2160p.DSNP.WEB-DL.x265.10bit.HDR.DDP5.1.Atmos-CM 11.60GB attachment 卡西迪奥 2021-6-18 0122 卡西迪奥 2021-6-18 20:51
[BD-4K] 哥斯拉大战金刚 Godzilla.vs.Kong.2021.2160p.UHD.BluRay.x265.10bit.HDR.TrueHD.7.1.Atmos-B0MBARDiERS 21.68GB attachment 卡西迪奥 2021-6-17 081 卡西迪奥 2021-6-17 09:34
[BD-4K] 正义的慈悲/不完美的正义 Just.Mercy.2019.2160p.WEB-DL.x265.10bit.HDR.DTS-HD.MA.TrueHD.7.1.Atmos-SWTYBLZ 31.92GB attachment 卡西迪奥 2021-6-17 045 卡西迪奥 2021-6-17 09:30
[BD-4K] 太空异旅/一级任务 Voyagers.2021.2160p.UHD.BluRay.x265.10bit.HDR.TrueHD.5.1-B0MBARDiERS 9.88GB attachment 卡西迪奥 2021-6-17 062 卡西迪奥 2021-6-17 09:29
[BD-4K] 正义的慈悲/不完美的正义 Just.Mercy.2019.2160p.WEB-DL.x265.10bit.SDR.DTS-HD.MA.TrueHD.7.1.Atmos-SWTYBLZ 28.41GB attachment 卡西迪奥 2021-6-17 061 卡西迪奥 2021-6-17 09:27
[BD-4K] 寻龙传说/寻龙使者:拉雅 Raya.and.the.Last.Dragon.2021.2160p.WEB-DL.DDP5.1.Atmos.DV.x265-RAYA 17.97GB attachment 卡西迪奥 2021-6-16 0166 卡西迪奥 2021-6-16 22:07
[WEB-4K] 未命名恐怖片(UHM) Untitled.Horror.Movie.2021.2160p.WEB-DL.x265.10bit.SDR.DD5.1-CM 7.52GB attachment 卡西迪奥 2021-6-15 0130 卡西迪奥 2021-6-15 14:26
[4K-Remux] 吉它武士/六弦琴武士 Six-String.Samurai.1998.2160p.BluRay.REMUX.HEVC.DTS-HD.MA.5.1-FGT 55.62GB attachment 卡西迪奥 2021-6-15 046 卡西迪奥 2021-6-15 14:25
[4K-原盘] 吉它武士/六弦琴武士 Six-String.Samurai.1998.2160p.BluRay.HEVC.DTS-HD.MA.5.1-TASTED 58.63G attachment 卡西迪奥 2021-6-15 069 卡西迪奥 2021-6-15 13:59
[4K-Remux] 本能/氷の微笑 Basic.Instinct.1992.2160p.BluRay.REMUX.HEVC.DTS-HD.MA.5.1-FGT 60.73GB attachment 卡西迪奥 2021-6-15 053 卡西迪奥 2021-6-15 13:19
[4K-原盘] 本能/氷の微笑 Basic.Instinct.1992.2160p.BluRay.HEVC.DTS-HD.MA.5.1-MAXAGAZ 89.17GB attachment 卡西迪奥 2021-6-15 050 卡西迪奥 2021-6-15 13:18
下一页 »

快速发帖

还可输入 200 个字符
您需要登录后才可以发帖 登录 | 立即注册

本版积分规则

QQ|广告友链合作联系QQ:1374229927|小黑屋|威酷高清影视论坛

GMT+8, 2021-7-28 15:19 , Processed in 0.013144 second(s), 5 queries , Gzip On, MemCached On.

Powered by Discuz! X3.4

Copyright © 2001-2021, Tencent Cloud.